Main page
METAR-TAF:

METAR-TAF

Airports :

Madrid–Torrejón Airport

Madrid-Torrejón, Spain

latitude: 40-29N, longitude: 003-27W, elevation: 607 m

Current weather observation

The report was made 24 minutes ago, at 23:30 UTC
Wind 1 kt from variable directions
Temperature 12°C
Humidity 88%
Pressure 1027 hPa
Visibility: 7000 m
Overcast at a height of 1100 ft

METAR: LETO 282330Z VRB01KT 7000 OVC011 12/10 Q1027 NOSIG

Time: 00:54 (23:54 UTC)

Forecast

The report was made 54 minutes ago, at 23:00 UTC
Forecast valid from 29 at 00 UTC to 29 at 24 UTC
Wind 4 kt from variable directions
Visibility 10 km or more
Overcast at a height of 1200 ft
Probability 40% :
Temporary
from 29 at 00 UTC to 29 at 12 UTC
Visibility: 2000 m
mist
Probability 30% :
Temporary
from 29 at 06 UTC to 29 at 10 UTC
Visibility: 0200 m
at a height of 200 ft
fog

TAF: LETO 282300Z 2900/2924 VRB04KT 9999 OVC012 TX16/2915Z TN07/2906Z PROB40 TEMPO 2900/2912 2000 BR PROB30 TEMPO 2906/2910 0200 FG VV002

Weather observations and forecasts of more than 4000 airports (METAR and TAF reports).

The available stations are represented by yellow and red dots on the map.

Hover mouse over dot to see the name of the station.

Then click to see weather observations and forecasts.

To change the map : click on the green buttons with a black cross to zoom in, on the green button with a dash to zoom out, or on the green arrows for adjacent maps.


METAR-TAF: